createdAt,value
2018-10-12T00:00:45.326Z,84.63
2018-10-12T00:03:14.298Z,89.70
2018-10-12T00:05:43.018Z,81.03
2018-10-12T00:08:13.118Z,68.67
2018-10-12T00:10:41.331Z,55.97
2018-10-12T00:13:09.894Z,81.40
2018-10-12T00:15:38.066Z,69.83
2018-10-12T00:18:06.274Z,79.77
2018-10-12T00:20:35.387Z,73.23
2018-10-12T00:23:03.598Z,57.80
2018-10-12T00:25:32.406Z,56.70
2018-10-12T00:28:00.833Z,73.63
2018-10-12T00:30:30.141Z,75.80
2018-10-12T00:32:59.094Z,59.43
2018-10-12T00:35:27.256Z,53.43
2018-10-12T00:37:55.495Z,59.47
2018-10-12T00:40:23.670Z,57.67
2018-10-12T00:42:52.550Z,75.97
2018-10-12T00:45:22.138Z,78.53
2018-10-12T00:47:57.564Z,65.40
2018-10-12T00:50:25.779Z,66.17
2018-10-12T00:52:54.886Z,82.73
2018-10-12T00:55:24.451Z,68.37
2018-10-12T00:57:52.623Z,63.57
2018-10-12T01:00:21.042Z,74.60
2018-10-12T01:02:49.265Z,80.20
2018-10-12T01:05:17.466Z,85.90
2018-10-12T01:07:45.822Z,86.00
2018-10-12T01:10:14.092Z,71.03
2018-10-12T01:12:42.278Z,67.47
2018-10-12T01:15:11.271Z,92.37
2018-10-12T01:17:39.519Z,110.83
2018-10-12T01:20:08.203Z,133.37
2018-10-12T01:22:37.284Z,133.97
2018-10-12T01:25:06.387Z,104.40
2018-10-12T01:27:34.720Z,70.23
2018-10-12T01:30:03.477Z,70.07
2018-10-12T01:32:37.822Z,61.10
2018-10-12T01:35:05.953Z,60.00
2018-10-12T01:37:34.200Z,59.80
2018-10-12T01:40:02.390Z,63.57
2018-10-12T01:42:30.546Z,76.83
2018-10-12T01:44:58.760Z,76.23
2018-10-12T01:47:26.963Z,89.30
2018-10-12T01:49:55.417Z,76.73
2018-10-12T01:52:23.629Z,79.67
2018-10-12T01:54:52.136Z,75.90
2018-10-12T01:57:20.345Z,63.77
2018-10-12T01:59:48.544Z,67.60
2018-10-12T02:02:16.774Z,76.40
2018-10-12T02:04:45.776Z,79.30
2018-10-12T02:07:14.066Z,83.03
2018-10-12T02:09:42.313Z,62.33
2018-10-12T02:12:10.494Z,62.77
2018-10-12T02:14:39.120Z,61.23
2018-10-12T02:17:07.792Z,57.37
2018-10-12T02:19:36.062Z,56.17
2018-10-12T02:22:04.269Z,61.80
2018-10-12T02:24:32.494Z,46.37
2018-10-12T02:27:00.895Z,57.70
2018-10-12T02:29:29.894Z,53.47
2018-10-12T02:31:58.110Z,59.10
2018-10-12T02:34:26.303Z,54.50
2018-10-12T02:36:54.801Z,53.47
2018-10-12T02:39:23.404Z,52.60
2018-10-12T02:41:51.606Z,49.07
2018-10-12T02:44:19.819Z,61.00
2018-10-12T02:46:48.020Z,72.00
2018-10-12T02:49:16.261Z,119.17
2018-10-12T02:51:45.835Z,140.70
2018-10-12T02:54:14.439Z,88.70
2018-10-12T02:56:42.647Z,94.07
2018-10-12T02:59:10.878Z,76.90
2018-10-12T03:01:39.037Z,63.20
2018-10-12T03:04:07.286Z,66.00
2018-10-12T03:06:35.474Z,58.97
2018-10-12T03:09:04.979Z,67.40
2018-10-12T03:11:34.792Z,65.20
2018-10-12T03:14:02.961Z,66.10
2018-10-12T03:16:31.954Z,64.27
2018-10-12T03:19:00.715Z,79.70
2018-10-12T03:21:28.910Z,88.83
2018-10-12T03:23:57.094Z,84.50
2018-10-12T03:26:25.278Z,68.30
2018-10-12T03:28:54.191Z,68.93
2018-10-12T03:31:22.446Z,64.27
2018-10-12T03:33:50.654Z,66.47
2018-10-12T03:36:19.119Z,69.13
2018-10-12T03:38:47.387Z,60.30
2018-10-12T03:41:15.698Z,66.70
2018-10-12T03:43:43.982Z,90.63
2018-10-12T03:46:14.123Z,80.13
2018-10-12T03:48:42.319Z,85.63
2018-10-12T03:51:10.798Z,61.40
2018-10-12T03:53:39.158Z,58.20
2018-10-12T03:56:07.363Z,49.17
2018-10-12T03:58:35.934Z,49.93
2018-10-12T04:01:04.392Z,56.17
2018-10-12T04:03:32.559Z,50.30
2018-10-12T04:06:00.954Z,72.37
2018-10-12T04:08:29.188Z,76.13
2018-10-12T04:10:57.806Z,60.60
2018-10-12T04:13:26.450Z,56.23
2018-10-12T04:15:55.191Z,59.60
2018-10-12T04:18:23.395Z,60.53
2018-10-12T04:20:51.599Z,55.53
2018-10-12T04:23:19.803Z,68.03
2018-10-12T04:25:47.961Z,63.30
2018-10-12T04:28:16.558Z,61.77
2018-10-12T04:30:44.886Z,57.07
2018-10-12T04:33:13.106Z,63.33
2018-10-12T04:35:41.312Z,59.77
2018-10-12T04:38:09.499Z,61.27
2018-10-12T04:41:22.974Z,69.53
2018-10-12T04:43:56.022Z,70.17
2018-10-12T04:46:34.879Z,73.50
2018-10-12T04:49:04.738Z,105.10
2018-10-12T04:51:37.363Z,68.47
2018-10-12T04:54:06.203Z,65.90
2018-10-12T04:56:34.475Z,69.20
2018-10-12T04:59:02.680Z,74.00
2018-10-12T05:01:30.946Z,81.80
2018-10-12T05:03:59.178Z,95.47
2018-10-12T05:06:27.346Z,86.23
2018-10-12T05:08:55.562Z,94.37
2018-10-12T05:11:23.749Z,88.67
2018-10-12T05:13:51.930Z,83.67
2018-10-12T05:16:20.818Z,79.00
2018-10-12T05:18:48.988Z,74.30
2018-10-12T05:21:17.219Z,77.93
2018-10-12T05:23:45.666Z,79.17
2018-10-12T05:26:14.241Z,77.60
2018-10-12T05:28:42.451Z,73.73
2018-10-12T05:31:10.602Z,75.17
2018-10-12T05:33:39.535Z,65.80
2018-10-12T05:36:08.046Z,63.43
2018-10-12T05:38:36.918Z,57.23
2018-10-12T05:41:05.563Z,59.27
2018-10-12T05:43:33.841Z,57.77
2018-10-12T05:46:02.454Z,51.93
2018-10-12T05:48:41.926Z,54.37
2018-10-12T05:51:12.755Z,57.27
2018-10-12T05:53:41.103Z,51.73
2018-10-12T05:56:09.628Z,54.17
2018-10-12T05:58:38.586Z,54.63
2018-10-12T06:01:07.339Z,57.00
2018-10-12T06:03:35.736Z,58.00
2018-10-12T06:06:03.970Z,58.90
2018-10-12T06:08:32.933Z,61.60
2018-10-12T06:11:01.261Z,66.20
2018-10-12T06:13:29.470Z,64.50
2018-10-12T06:15:58.047Z,53.07
2018-10-12T06:18:26.707Z,55.53
2018-10-12T06:20:54.913Z,51.87
2018-10-12T06:23:23.175Z,50.40
2018-10-12T06:25:51.391Z,45.50
2018-10-12T06:28:20.529Z,42.50
2018-10-12T06:30:48.748Z,43.27
2018-10-12T06:33:17.306Z,45.40
2018-10-12T06:35:45.634Z,50.97
2018-10-12T06:38:13.833Z,54.70
2018-10-12T06:40:48.254Z,55.00
2018-10-12T06:43:16.389Z,45.80
2018-10-12T06:45:44.651Z,35.40
2018-10-12T06:48:13.431Z,31.57
2018-10-12T06:50:42.367Z,27.60
2018-10-12T06:53:11.138Z,24.90
2018-10-12T06:55:39.569Z,25.97
2018-10-12T06:58:08.096Z,21.80
2018-10-12T07:00:36.338Z,20.40
2018-10-12T07:03:04.590Z,21.37
2018-10-12T07:05:32.817Z,21.37
2018-10-12T07:08:01.083Z,19.37
2018-10-12T07:10:29.271Z,22.17
2018-10-12T07:12:57.685Z,20.77
2018-10-12T07:15:26.023Z,23.02
2018-10-12T07:17:54.247Z,20.00
2018-10-12T07:20:22.487Z,21.12
2018-10-12T07:22:50.701Z,21.65
2018-10-12T07:25:18.881Z,21.25
2018-10-12T07:27:47.095Z,24.37
2018-10-12T07:30:15.802Z,27.07
2018-10-12T07:32:44.125Z,25.27
2018-10-12T07:35:12.289Z,26.40
2018-10-12T07:37:40.526Z,26.62
2018-10-12T07:40:09.215Z,28.35
2018-10-12T07:42:38.027Z,28.10
2018-10-12T07:45:06.789Z,29.07
2018-10-12T07:47:34.947Z,28.75
2018-10-12T07:50:03.594Z,30.25
2018-10-12T07:52:31.807Z,23.55
2018-10-12T07:55:00.002Z,25.88
2018-10-12T07:57:31.350Z,33.18
2018-10-12T08:00:00.101Z,25.17
2018-10-12T08:02:29.085Z,25.40
2018-10-12T08:04:57.250Z,27.52
2018-10-12T08:07:25.490Z,26.33
2018-10-12T08:09:53.696Z,31.02
2018-10-12T08:12:21.894Z,27.65
2018-10-12T08:14:50.089Z,30.08
2018-10-12T08:17:19.718Z,28.52
2018-10-12T08:19:48.290Z,32.03
2018-10-12T08:22:16.494Z,30.23
2018-10-12T08:24:44.851Z,24.43
2018-10-12T08:27:13.130Z,27.55
2018-10-12T08:29:41.338Z,28.40
2018-10-12T08:32:09.802Z,21.68
2018-10-12T08:34:38.007Z,26.73
2018-10-12T08:37:06.898Z,25.10
2018-10-12T08:39:35.098Z,23.67
2018-10-12T08:42:03.347Z,26.55
2018-10-12T08:44:31.557Z,24.70
2018-10-12T08:46:59.778Z,23.35
2018-10-12T08:49:28.367Z,23.75
2018-10-12T08:51:56.562Z,20.82
2018-10-12T08:54:24.757Z,23.57
2018-10-12T08:56:52.939Z,22.85
2018-10-12T08:59:21.491Z,19.77
2018-10-12T09:01:49.707Z,24.82
2018-10-12T09:04:17.917Z,23.15
2018-10-12T09:06:46.355Z,25.48
2018-10-12T09:09:14.940Z,24.70
2018-10-12T09:11:43.790Z,21.20
2018-10-12T09:14:12.126Z,23.42
2018-10-12T09:16:40.326Z,24.57
2018-10-12T09:19:08.937Z,25.55
2018-10-12T09:21:38.551Z,24.23
2018-10-12T09:24:08.627Z,20.97
2018-10-12T09:26:37.826Z,21.33
2018-10-12T09:29:06.187Z,18.27
2018-10-12T09:31:36.339Z,20.75
2018-10-12T09:34:04.918Z,22.90
2018-10-12T09:36:33.247Z,21.62
2018-10-12T09:39:01.570Z,18.48
2018-10-12T09:41:30.174Z,19.52
2018-10-12T09:43:58.663Z,21.20
2018-10-12T09:46:27.350Z,15.35
2018-10-12T09:48:55.506Z,19.62
2018-10-12T09:51:23.706Z,23.67
2018-10-12T09:53:52.454Z,17.48
2018-10-12T09:56:21.019Z,16.93
2018-10-12T09:58:49.807Z,20.15
2018-10-12T10:01:23.478Z,19.60
2018-10-12T10:03:57.224Z,17.20
2018-10-12T10:06:26.190Z,16.60
2018-10-12T10:08:54.433Z,16.00
2018-10-12T10:11:22.590Z,17.20
2018-10-12T10:13:51.189Z,14.78
2018-10-12T10:16:22.050Z,12.07
2018-10-12T10:18:51.155Z,13.80
2018-10-12T10:21:19.696Z,17.35
2018-10-12T10:23:54.066Z,12.23
2018-10-12T10:26:22.278Z,14.60
2018-10-12T10:28:50.486Z,12.78
2018-10-12T10:31:18.908Z,11.05
2018-10-12T10:33:47.072Z,14.28
2018-10-12T10:36:15.379Z,12.50
2018-10-12T10:38:43.563Z,14.40
2018-10-12T10:41:11.773Z,9.60
2018-10-12T10:43:40.266Z,10.25
2018-10-12T10:46:08.492Z,11.05
2018-10-12T10:48:36.690Z,9.90
2018-10-12T10:51:05.634Z,9.55
2018-10-12T10:53:33.871Z,11.70
2018-10-12T10:56:02.236Z,12.33
2018-10-12T10:58:30.590Z,8.40
2018-10-12T11:00:58.780Z,9.08
2018-10-12T11:03:26.962Z,14.85
2018-10-12T11:05:55.166Z,7.55
2018-10-12T11:08:27.678Z,9.45
2018-10-12T11:10:56.690Z,13.20
2018-10-12T11:13:24.924Z,7.83
2018-10-12T11:15:53.106Z,8.38
2018-10-12T11:18:27.190Z,11.25
2018-10-12T11:20:55.524Z,10.03
2018-10-12T11:23:23.685Z,7.78
2018-10-12T11:25:51.898Z,7.70
2018-10-12T11:28:20.116Z,7.72
2018-10-12T11:30:48.306Z,6.67
2018-10-12T11:33:17.121Z,6.67
2018-10-12T11:35:51.958Z,9.25
2018-10-12T11:38:20.979Z,9.98
2018-10-12T11:40:49.146Z,8.43
2018-10-12T11:43:30.329Z,6.08
2018-10-12T11:46:00.082Z,5.60
2018-10-12T11:48:28.413Z,5.75
2018-10-12T11:50:56.635Z,3.67
2018-10-12T11:53:25.329Z,7.35
2018-10-12T11:55:53.538Z,5.85
2018-10-12T11:58:22.023Z,4.58
2018-10-12T12:00:50.232Z,5.45
2018-10-12T12:03:19.886Z,5.17
2018-10-12T12:05:48.182Z,3.67
2018-10-12T12:08:16.557Z,7.58
2018-10-12T12:10:45.350Z,6.72
2018-10-12T12:13:13.906Z,4.28
2018-10-12T12:15:42.070Z,6.20
2018-10-12T12:18:10.731Z,4.95
2018-10-12T12:20:38.942Z,4.45
2018-10-12T12:23:07.617Z,2.87
2018-10-12T12:25:35.805Z,4.85
2018-10-12T12:28:05.045Z,5.87
2018-10-12T12:30:33.243Z,5.37
2018-10-12T12:33:02.006Z,7.55
2018-10-12T12:35:30.817Z,7.80
2018-10-12T12:37:58.706Z,5.97
2018-10-12T12:40:26.861Z,7.30
2018-10-12T12:42:55.074Z,5.05
2018-10-12T12:45:23.694Z,3.20
2018-10-12T12:47:55.443Z,4.17
2018-10-12T12:50:24.198Z,4.20
2018-10-12T12:52:52.326Z,5.60
2018-10-12T12:58:28.391Z,2.40
2018-10-12T13:00:57.546Z,3.50
2018-10-12T13:03:25.748Z,5.00
2018-10-12T13:05:54.568Z,7.37
2018-10-12T13:08:22.758Z,3.33
2018-10-12T13:10:51.643Z,5.08
2018-10-12T13:13:21.032Z,5.10
2018-10-12T13:15:49.191Z,4.28
2018-10-12T13:18:17.489Z,3.58
2018-10-12T13:20:45.665Z,4.40
2018-10-12T13:23:14.202Z,4.62
2018-10-12T13:25:43.156Z,3.70
2018-10-12T13:28:11.286Z,2.87
2018-10-12T13:30:40.131Z,5.92
2018-10-12T13:33:08.302Z,8.73
2018-10-12T13:35:36.543Z,3.75
2018-10-12T13:38:05.098Z,4.15
2018-10-12T13:40:33.286Z,3.30
2018-10-12T13:43:01.594Z,4.95
2018-10-12T13:45:29.859Z,5.75
2018-10-12T13:47:58.443Z,3.52
2018-10-12T13:50:26.637Z,3.27
2018-10-12T13:52:54.833Z,6.35
2018-10-12T13:55:29.324Z,3.33
2018-10-12T13:57:57.678Z,4.05
2018-10-12T14:00:25.896Z,4.47
2018-10-12T14:02:53.984Z,4.42
2018-10-12T14:05:22.162Z,5.45
2018-10-12T14:07:50.396Z,2.40
2018-10-12T14:10:18.599Z,3.80
2018-10-12T14:12:47.793Z,5.33
2018-10-12T14:15:16.247Z,3.90
2018-10-12T14:17:44.405Z,6.00
2018-10-12T14:20:12.607Z,2.37
2018-10-12T14:22:40.781Z,2.20
2018-10-12T14:25:09.085Z,3.62
2018-10-12T14:27:37.782Z,4.90
2018-10-12T14:30:06.948Z,3.33
2018-10-12T14:32:35.126Z,4.45
2018-10-12T14:35:03.547Z,3.10
2018-10-12T14:37:31.833Z,5.92
2018-10-12T14:40:00.455Z,3.20
2018-10-12T14:42:29.079Z,2.08
2018-10-12T14:44:57.292Z,2.85
2018-10-12T14:47:25.594Z,3.47
2018-10-12T14:49:53.794Z,6.25
2018-10-12T14:52:21.990Z,2.25
2018-10-12T14:54:50.908Z,4.03
2018-10-12T14:57:19.898Z,3.47
2018-10-12T14:59:49.564Z,3.10
2018-10-12T15:02:18.569Z,4.35
2018-10-12T15:04:47.202Z,5.62
2018-10-12T15:07:15.802Z,6.22
2018-10-12T15:09:44.150Z,2.33
2018-10-12T15:12:12.320Z,2.95
2018-10-12T15:14:51.895Z,2.40
2018-10-12T15:17:20.079Z,2.80
2018-10-12T15:19:48.858Z,5.30
2018-10-12T15:22:17.082Z,4.00
2018-10-12T15:24:45.234Z,3.52
2018-10-12T15:27:13.419Z,5.33
2018-10-12T15:29:42.546Z,3.87
2018-10-12T15:32:10.779Z,4.67
2018-10-12T15:34:40.862Z,3.62
2018-10-12T15:37:09.121Z,4.65
2018-10-12T15:39:38.152Z,5.58
2018-10-12T15:42:06.339Z,3.80
2018-10-12T15:44:34.533Z,8.38
2018-10-12T15:47:02.738Z,16.70
2018-10-12T15:49:31.883Z,14.95
2018-10-12T15:52:00.518Z,13.60
2018-10-12T15:54:29.161Z,12.00
2018-10-12T15:56:57.813Z,21.45
2018-10-12T15:59:25.959Z,25.92
2018-10-12T16:01:54.123Z,37.28
2018-10-12T16:04:22.554Z,26.82
2018-10-12T16:06:51.299Z,11.22
2018-10-12T16:09:19.450Z,12.07
2018-10-12T16:11:47.698Z,13.98
2018-10-12T16:14:15.866Z,9.23
2018-10-12T16:16:44.055Z,3.77
2018-10-12T16:19:12.285Z,6.03
2018-10-12T16:21:41.309Z,2.10
2018-10-12T16:24:10.884Z,2.52
2018-10-12T16:26:39.066Z,5.55
2018-10-12T16:29:07.341Z,2.60
2018-10-12T16:31:35.466Z,2.27
2018-10-12T16:34:03.898Z,3.47
2018-10-12T16:36:32.105Z,2.60
2018-10-12T16:39:00.366Z,3.67
2018-10-12T16:41:28.534Z,3.47
2018-10-12T16:43:56.727Z,3.87
2018-10-12T16:46:25.822Z,3.42
2018-10-12T16:48:54.457Z,2.35
2018-10-12T16:51:23.253Z,6.50
2018-10-12T16:53:51.843Z,3.42
2018-10-12T16:56:20.026Z,7.55
2018-10-12T16:58:48.248Z,8.35
2018-10-12T17:01:16.654Z,4.50
2018-10-12T17:03:45.896Z,3.10
2018-10-12T17:06:14.102Z,7.00
2018-10-12T17:08:42.958Z,5.62
2018-10-12T17:11:11.905Z,6.78
2018-10-12T17:13:40.078Z,6.25
2018-10-12T17:16:08.263Z,8.78
2018-10-12T17:18:36.470Z,8.00
2018-10-12T17:21:05.382Z,5.28
2018-10-12T17:23:35.472Z,8.40
2018-10-12T17:26:03.912Z,4.58
2018-10-12T17:28:32.163Z,3.75
2018-10-12T17:31:00.735Z,6.13
2018-10-12T17:33:29.156Z,7.33
2018-10-12T17:35:57.352Z,6.80
2018-10-12T17:38:26.251Z,7.17
2018-10-12T17:40:54.422Z,6.30
2018-10-12T17:43:22.664Z,7.30
2018-10-12T17:45:50.871Z,5.50
2018-10-12T17:48:19.022Z,3.60
2018-10-12T17:50:47.195Z,6.95
2018-10-12T17:53:15.395Z,6.17
2018-10-12T17:55:43.594Z,6.90
2018-10-12T17:58:11.777Z,5.30
2018-10-12T18:00:39.955Z,5.00
2018-10-12T18:03:08.143Z,5.07
2018-10-12T18:05:36.342Z,4.30
2018-10-12T18:08:04.526Z,6.00
2018-10-12T18:10:33.150Z,3.83
2018-10-12T18:13:01.945Z,5.97
2018-10-12T18:15:30.122Z,4.30
2018-10-12T18:17:58.322Z,6.10
2018-10-12T18:20:26.822Z,4.67
2018-10-12T18:22:55.406Z,9.33
2018-10-12T18:25:23.528Z,6.40
2018-10-12T18:27:51.715Z,6.97
2018-10-12T18:30:19.942Z,7.27
2018-10-12T18:32:48.158Z,6.57
2018-10-12T18:35:16.574Z,5.53
2018-10-12T18:37:44.921Z,6.13
2018-10-12T18:40:13.131Z,7.37
2018-10-12T18:42:41.327Z,9.33
2018-10-12T18:45:09.610Z,5.50
2018-10-12T18:47:37.825Z,7.80
2018-10-12T18:50:05.962Z,7.63
2018-10-12T18:52:34.158Z,10.57
2018-10-12T18:55:02.344Z,9.90
2018-10-12T18:57:33.365Z,9.27
2018-10-12T19:00:02.631Z,7.63
2018-10-12T19:02:30.974Z,10.20
2018-10-12T19:04:59.317Z,10.67
2018-10-12T19:07:27.442Z,10.63
2018-10-12T19:09:56.518Z,11.00
2018-10-12T19:12:24.715Z,7.73
2018-10-12T19:14:52.918Z,8.37
2018-10-12T19:17:22.719Z,11.20
2018-10-12T19:19:51.286Z,12.30
2018-10-12T19:22:19.557Z,8.77
2018-10-12T19:24:47.746Z,7.90
2018-10-12T19:27:15.927Z,9.63
2018-10-12T19:29:45.917Z,8.50
2018-10-12T19:32:14.134Z,9.73
2018-10-12T19:34:42.338Z,9.97
2018-10-12T19:37:10.543Z,10.00
2018-10-12T19:39:38.716Z,7.80
2018-10-12T19:42:06.929Z,10.77
2018-10-12T19:44:35.119Z,9.10
2018-10-12T19:47:03.348Z,9.60
2018-10-12T19:49:31.542Z,10.33
2018-10-12T19:51:59.738Z,7.77
2018-10-12T19:54:27.994Z,9.50
2018-10-12T19:56:56.186Z,7.57
2018-10-12T19:59:24.378Z,9.50
2018-10-12T20:01:52.583Z,12.73
2018-10-12T20:04:21.278Z,12.00
2018-10-12T20:06:49.796Z,8.20
2018-10-12T20:09:18.628Z,8.93
2018-10-12T20:11:46.843Z,9.40
2018-10-12T20:14:15.019Z,9.63
2018-10-12T20:16:43.202Z,8.90
2018-10-12T20:19:11.417Z,12.10
2018-10-12T20:21:40.094Z,7.40
2018-10-12T20:24:08.811Z,10.13
2018-10-12T20:26:37.370Z,7.50
2018-10-12T20:29:05.672Z,9.27
2018-10-12T20:31:33.954Z,11.60
2018-10-12T20:34:02.091Z,6.73
2018-10-12T20:36:30.430Z,6.93
2018-10-12T20:38:58.615Z,5.30
2018-10-12T20:41:26.787Z,6.37
2018-10-12T20:43:54.982Z,8.00
2018-10-12T20:46:24.713Z,9.17
2018-10-12T20:48:53.219Z,7.07
2018-10-12T20:51:23.839Z,12.37
2018-10-12T20:53:52.017Z,6.80
2018-10-12T20:56:20.226Z,6.50
2018-10-12T20:58:48.403Z,8.50
2018-10-12T21:01:16.831Z,8.03
2018-10-12T21:03:45.036Z,8.10
2018-10-12T21:06:14.120Z,8.83
2018-10-12T21:08:42.254Z,12.07
2018-10-12T21:11:10.486Z,9.10
2018-10-12T21:13:38.817Z,10.30
2018-10-12T21:16:07.575Z,8.63
2018-10-12T21:18:36.114Z,12.73
2018-10-12T21:21:04.306Z,10.53
2018-10-12T21:23:33.014Z,10.00
2018-10-12T21:26:03.059Z,11.53
2018-10-12T21:28:31.345Z,11.53
2018-10-12T21:30:59.543Z,11.10
2018-10-12T21:33:27.716Z,9.00
2018-10-12T21:35:55.942Z,10.57
2018-10-12T21:38:24.148Z,10.40
2018-10-12T21:40:52.340Z,9.03
2018-10-12T21:43:20.543Z,13.33
2018-10-12T21:45:49.153Z,13.00
2018-10-12T21:48:17.477Z,13.20
2018-10-12T21:50:45.737Z,10.13
2018-10-12T21:53:13.951Z,9.80
2018-10-12T21:55:42.759Z,10.43
2018-10-12T21:58:10.953Z,12.60
2018-10-12T22:00:39.193Z,11.90
2018-10-12T22:03:07.498Z,12.23
2018-10-12T22:05:35.690Z,11.50
2018-10-12T22:08:03.878Z,10.73
2018-10-12T22:10:32.070Z,9.57
2018-10-12T22:13:00.745Z,10.20
2018-10-12T22:15:28.962Z,7.87
2018-10-12T22:17:57.227Z,8.33
2018-10-12T22:20:25.444Z,9.77
2018-10-12T22:22:53.650Z,10.43
2018-10-12T22:25:21.857Z,8.83
2018-10-12T22:27:50.147Z,10.47
2018-10-12T22:30:18.562Z,10.73
2018-10-12T22:32:47.078Z,11.10
2018-10-12T22:35:15.466Z,10.63
2018-10-12T22:37:43.691Z,12.73
2018-10-12T22:40:12.179Z,10.27
2018-10-12T22:42:40.449Z,11.20
2018-10-12T22:45:09.516Z,10.47
2018-10-12T22:47:37.758Z,11.87
2018-10-12T22:50:06.061Z,10.70
2018-10-12T22:52:34.664Z,10.10
2018-10-12T22:55:02.939Z,20.27
2018-10-12T22:57:31.710Z,10.03
2018-10-12T22:59:59.895Z,12.27
2018-10-12T23:02:28.134Z,7.83
2018-10-12T23:04:56.350Z,8.70
2018-10-12T23:07:24.563Z,15.23
2018-10-12T23:09:54.388Z,14.13
2018-10-12T23:12:22.835Z,12.10
2018-10-12T23:14:50.983Z,11.17
2018-10-12T23:17:19.187Z,12.13
2018-10-12T23:19:47.355Z,12.03
2018-10-12T23:22:15.590Z,10.17
2018-10-12T23:24:43.779Z,10.73
2018-10-12T23:27:11.986Z,10.00
2018-10-12T23:29:40.181Z,12.77
2018-10-12T23:32:08.348Z,10.50
2018-10-12T23:34:36.565Z,11.93
2018-10-12T23:37:05.306Z,13.00
2018-10-12T23:39:33.485Z,9.73
2018-10-12T23:42:03.621Z,9.87
2018-10-12T23:44:31.814Z,8.93
2018-10-12T23:47:00.165Z,10.83
2018-10-12T23:49:28.845Z,10.67
2018-10-12T23:51:57.020Z,10.43
2018-10-12T23:54:25.586Z,10.73
2018-10-12T23:56:53.803Z,12.00
2018-10-12T23:59:21.986Z,10.17
